Buoy 32817

sailwx.info

Track history (hours):
 
Tides and Currents Weather Stations Pressure Air Temp Water Temp Dewpoint Dewpoint Depression Visibility Wind Speed Wind Dir Waves Ship Positions

Drifting buoy 32817

Last reported at 2018-Jun-23 14:30 UTC. Time now 2018-Jun-23 15:32 UTC.
Position S 33°57' W 105°05'.

Water temperature 18.3 ° C

Date/timePositionNaut miles runAvg speedWind from/ knotsBaromVisibWave heightAir tempDewpointWater temp
2018-Jun-23 14:30S 33°57' W 105°05'1 2.4 18.3
2018-Jun-23 14:15S 33°56' W 105°05'0 0.0 18.3
2018-Jun-23 14:00S 33°56' W 105°05'0 0.5 18.3
2018-Jun-23 13:00S 33°56' W 105°04'1 2.4 18.3
2018-Jun-23 12:45S 33°57' W 105°04'0 0.0 18.3
2018-Jun-23 12:30S 33°57' W 105°04'1 0.8 18.3
2018-Jun-23 11:45S 33°56' W 105°04'0 0.0 18.3
2018-Jun-23 11:30S 33°56' W 105°04'0 0.0 18.3
2018-Jun-23 10:00S 33°56' W 105°04'0 0.0 18.4
2018-Jun-23 09:45S 33°56' W 105°04'1 0.2 18.4
2018-Jun-23 06:00S 33°56' W 105°04'0 0.7 18.4
2018-Jun-23 05:15S 33°56' W 105°03'0 0.0 18.4
2018-Jun-23 05:00S 33°56' W 105°03'0 0.0 18.4
2018-Jun-23 04:30S 33°56' W 105°03'0 0.0 18.4
2018-Jun-23 04:15S 33°56' W 105°03'0 0.7 18.4
2018-Jun-23 03:30S 33°56' W 105°02'1 2.4 18.4
2018-Jun-23 03:15S 33°56' W 105°02'0 0.0 18.4
2018-Jun-23 03:00S 33°56' W 105°02'0 0.0 18.4
2018-Jun-23 02:45S 33°56' W 105°02'0 1.0 18.4
2018-Jun-23 02:15S 33°56' W 105°02'0 0.0 18.5
2018-Jun-23 02:00S 33°56' W 105°02'0 0.0 18.4
2018-Jun-23 01:45S 33°56' W 105°02'0 0.0 18.5
2018-Jun-23 00:30S 33°56' W 105°02'0 0.0 18.5
2018-Jun-23 00:15S 33°56' W 105°02'0 2.0 18.5
2018-Jun-23 00:00S 33°56' W 105°01'0 0.3 18.5
2018-Jun-22 22:30S 33°56' W 105°01'0 0.0 18.5
2018-Jun-22 16:45S 33°56' W 105°01'0 0.7 18.6
2018-Jun-22 16:00S 33°56' W 105°01'0 0.0 18.6
2018-Jun-22 15:00S 33°56' W 105°01'0 0.0 18.6
2018-Jun-22 14:45S 33°56' W 105°01'1 4.0 18.6
2018-Jun-22 14:30S 33°56' W 105°00'0 0.0 18.6
2018-Jun-22 14:15S 33°56' W 105°00'0 0.0 18.6
2018-Jun-22 13:30S 33°56' W 105°00'1 3.1 18.6
2018-Jun-22 13:15S 33°56' W 105°01'1 1.6 18.6
2018-Jun-22 12:45S 33°56' W 105°00'1 1.0 18.6
2018-Jun-22 12:00S 33°56' W 105°01'0 0.0 18.5
2018-Jun-22 11:30S 33°56' W 105°01'0 0.0 18.4
2018-Jun-22 10:15S 33°56' W 105°01'0 0.0 18.3
2018-Jun-22 10:00S 33°56' W 105°01'1 0.3 18.3
2018-Jun-22 06:15S 33°56' W 104°59'0 0.0 18.0
2018-Jun-22 05:30S 33°56' W 104°59'0 0.0 18.0
2018-Jun-22 05:15S 33°56' W 104°59'1 1.6 18.0
2018-Jun-22 04:45S 33°55' W 104°59'0 0.0 18.0
2018-Jun-22 04:30S 33°55' W 104°59'0 0.0 18.0
2018-Jun-22 03:45S 33°55' W 104°59'0 0.7 18.0
2018-Jun-22 03:00S 33°55' W 104°59'0 0.0 18.0
2018-Jun-22 02:45S 33°55' W 104°59'0 0.0 18.0
2018-Jun-22 02:15S 33°55' W 104°59'0 0.0 17.9
2018-Jun-22 02:00S 33°55' W 104°59'1 1.2 18.0
2018-Jun-22 01:00S 33°55' W 104°58'0 0.0 17.9
2018-Jun-22 00:30S 33°55' W 104°58'0 0.0 17.9
2018-Jun-22 00:15S 33°55' W 104°58'0 0.7 18.0
2018-Jun-21 23:30S 33°55' W 104°58'0 0.0 18.0
2018-Jun-21 23:15S 33°55' W 104°58'0 0.0 18.0
2018-Jun-21 22:45S 33°55' W 104°58'0 2.0 18.0
2018-Jun-21 22:30S 33°55' W 104°57'0 0.0 18.0
2018-Jun-21 17:00S 33°55' W 104°57'1 2.0 18.0
2018-Jun-21 16:30S 33°55' W 104°56'0 0.0 18.0
2018-Jun-21 16:15S 33°55' W 104°56'0 0.0 18.0
2018-Jun-21 15:30S 33°55' W 104°56'0 0.0 18.0
2018-Jun-21 15:15S 33°55' W 104°56'0 1.0 18.0
2018-Jun-21 14:45S 33°55' W 104°56'0 0.0 18.0
2018-Jun-21 14:30S 33°55' W 104°56'1 1.6 18.0
2018-Jun-21 14:00S 33°55' W 104°56'0 0.0 18.0
2018-Jun-21 13:45S 33°55' W 104°56'0 0.0 18.0
2018-Jun-21 13:00S 33°55' W 104°56'0 0.0 18.0
2018-Jun-21 12:45S 33°55' W 104°56'0 1.0 18.0
2018-Jun-21 12:15S 33°55' W 104°55'1 2.4 18.0
2018-Jun-21 12:00S 33°55' W 104°55'0 0.0 18.0
2018-Jun-21 10:30S 33°55' W 104°55'0 0.0 18.1
2018-Jun-21 10:15S 33°55' W 104°55'1 0.6 18.1
2018-Jun-21 08:30S 33°55' W 104°54'0 0.2 18.1
2018-Jun-21 05:45S 33°55' W 104°53'0 0.0 18.2
2018-Jun-21 05:15S 33°55' W 104°53'1 3.1 18.2
2018-Jun-21 05:00S 33°54' W 104°53'0 0.0 18.2
2018-Jun-21 04:45S 33°54' W 104°53'1 1.6 18.2
2018-Jun-21 04:15S 33°55' W 104°53'0 0.0 18.2
2018-Jun-21 04:00S 33°55' W 104°53'1 1.6 18.2
2018-Jun-21 03:30S 33°54' W 104°53'0 2.0 18.2
2018-Jun-21 03:15S 33°54' W 104°52'0 0.0 18.2
2018-Jun-21 03:00S 33°54' W 104°52'0 0.0 18.2
2018-Jun-21 02:45S 33°54' W 104°52'0 0.0 18.2
2018-Jun-21 02:30S 33°54' W 104°52'0 0.5 18.2
2018-Jun-21 01:30S 33°54' W 104°52'1 1.6 18.2
2018-Jun-21 01:00S 33°55' W 104°52'0 0.0 18.2
2018-Jun-21 00:45S 33°55' W 104°52'0 0.0 18.2
2018-Jun-21 00:30S 33°55' W 104°52'0 0.0 18.2
2018-Jun-21 00:00S 33°55' W 104°52'0 0.0 18.2
2018-Jun-20 23:45S 33°55' W 104°52'0 0.0 18.2
2018-Jun-20 23:00S 33°55' W 104°52'1 4.7 18.2
2018-Jun-20 22:45S 33°55' W 104°51'0 0.0 18.2
2018-Jun-20 17:30S 33°55' W 104°51'0 0.0 18.5
2018-Jun-20 17:15S 33°55' W 104°51'0 0.0 18.5
2018-Jun-20 16:45S 33°55' W 104°51'0 0.0 18.5
2018-Jun-20 16:30S 33°55' W 104°51'1 0.8 18.5
2018-Jun-20 15:45S 33°55' W 104°51'1 1.6 18.5
2018-Jun-20 15:15S 33°55' W 104°50'0 0.0 18.6
2018-Jun-20 15:00S 33°55' W 104°50'0 0.0 18.6
2018-Jun-20 14:45S 33°55' W 104°50'1 0.8 18.6
2018-Jun-20 14:00S 33°56' W 104°50'1 1.0 18.6
2018-Jun-20 13:15S 33°55' W 104°50'0 0.0 18.7
2018-Jun-20 13:00S 33°55' W 104°50'0 0.0 18.7
2018-Jun-20 12:45S 33°55' W 104°50'0 0.0 18.7
2018-Jun-20 12:30S 33°55' W 104°50'1 4.7 18.7
2018-Jun-20 12:15S 33°56' W 104°49'0 0.0 18.7
2018-Jun-20 12:00S 33°56' W 104°49'0 0.0 18.7
2018-Jun-20 10:30S 33°56' W 104°49'0 0.0 18.7
2018-Jun-20 10:15S 33°56' W 104°49'0 0.0 18.7
2018-Jun-20 08:45S 33°56' W 104°49'0 0.2 18.7
2018-Jun-20 06:00S 33°56' W 104°48'0 1.0 18.7
2018-Jun-20 05:30S 33°56' W 104°47'0 0.0 18.7
2018-Jun-20 05:15S 33°56' W 104°47'1 0.8 18.7
2018-Jun-20 04:30S 33°56' W 104°47'0 0.0 18.7
2018-Jun-20 04:15S 33°56' W 104°47'0 0.0 18.7
2018-Jun-20 03:45S 33°56' W 104°47'0 2.0 18.8
2018-Jun-20 03:30S 33°56' W 104°47'1 4.6 18.7
2018-Jun-20 03:15S 33°57' W 104°48'0 0.0 18.8
2018-Jun-20 03:00S 33°57' W 104°48'0 0.0 18.8
2018-Jun-20 02:00S 33°57' W 104°48'1 3.1 18.8
2018-Jun-20 01:45S 33°58' W 104°47'0 0.0 18.8
2018-Jun-20 01:30S 33°58' W 104°47'0 0.0 18.8
2018-Jun-20 01:15S 33°58' W 104°47'0 0.0 18.8
2018-Jun-20 00:45S 33°58' W 104°47'0 0.0 18.8
2018-Jun-20 00:30S 33°58' W 104°47'0 0.0 18.8
2018-Jun-20 00:15S 33°58' W 104°47'1 0.6 18.8
2018-Jun-19 23:15S 33°58' W 104°47'0 2.0 18.8
2018-Jun-19 23:00S 33°58' W 104°47'0 0.0 18.8
2018-Jun-19 22:45S 33°58' W 104°47'0 0.0 18.8
2018-Jun-19 17:15S 33°58' W 104°47'0 0.0 18.9
2018-Jun-19 17:00S 33°58' W 104°47'0 0.7 18.9
2018-Jun-19 16:15S 33°58' W 104°46'0 0.0 18.9
2018-Jun-19 16:00S 33°58' W 104°46'0 0.0 18.9
2018-Jun-19 15:30S 33°58' W 104°46'0 0.0 18.9
2018-Jun-19 15:15S 33°58' W 104°46'0 0.0 18.9
2018-Jun-19 15:00S 33°58' W 104°46'0 2.0 18.9
2018-Jun-19 14:45S 33°58' W 104°46'0 0.0 18.9
2018-Jun-19 13:15S 33°58' W 104°46'0 2.0 18.9
2018-Jun-19 13:00S 33°58' W 104°45'2 2.1 18.9
2018-Jun-19 12:15S 33°59' W 104°43'0 0.0 18.9
2018-Jun-19 11:30S 33°59' W 104°43'0 0.0 18.9
2018-Jun-19 10:45S 33°59' W 104°43'0 0.0 18.9
2018-Jun-19 10:30S 33°59' W 104°43'2 1.2 18.9
2018-Jun-19 09:00S 34°01' W 104°44'0 0.0 18.9
2018-Jun-19 06:30S 34°01' W 104°44'0 0.0 18.9
2018-Jun-19 05:45S 34°01' W 104°44'0 0.0 18.9
2018-Jun-19 04:45S 34°01' W 104°44'0 1.0 18.9
2018-Jun-19 04:15S 34°01' W 104°43'0 0.0 18.9
2018-Jun-19 04:00S 34°01' W 104°43'0 0.0 18.9
2018-Jun-19 03:45S 34°01' W 104°43'1 4.6 18.9
2018-Jun-19 03:30S 34°01' W 104°44'1 4.0 18.9
2018-Jun-19 03:15S 34°01' W 104°43'1 2.4 18.9
2018-Jun-19 03:00S 34°01' W 104°43'1 1.2 18.9
2018-Jun-19 02:00S 34°01' W 104°44'0 0.0 18.9
2018-Jun-19 01:45S 34°01' W 104°44'1 1.3 18.9
2018-Jun-19 01:00S 34°01' W 104°43'0 0.0 18.9
2018-Jun-19 00:45S 34°01' W 104°43'0 0.4 18.9
2018-Jun-18 23:30S 34°01' W 104°43'0 0.0 18.9
2018-Jun-18 23:15S 34°01' W 104°43'0 0.0 18.9
2018-Jun-18 21:30S 34°01' W 104°43'0 0.0 18.9
2018-Jun-18 17:30S 34°01' W 104°43'0 2.0 18.9
2018-Jun-18 17:15S 34°01' W 104°42'0 0.0 19.0
2018-Jun-18 15:45S 34°01' W 104°42'1 2.4 19.0
2018-Jun-18 15:30S 34°02' W 104°42'0 0.0 18.9
2018-Jun-18 15:15S 34°02' W 104°42'0 0.0 18.9
2018-Jun-18 15:00S 34°02' W 104°42'1 4.0 18.9
2018-Jun-18 14:45S 34°02' W 104°41'0 0.5 19.0
2018-Jun-18 13:45S 34°02' W 104°41'1 3.1 19.0
2018-Jun-18 13:30S 34°02' W 104°41'0 0.0 18.9
2018-Jun-18 13:15S 34°02' W 104°41'1 0.9 19.0
2018-Jun-18 12:00S 34°03' W 104°40'0 2.0 18.9
2018-Jun-18 11:45S 34°03' W 104°40'0 0.7 18.9
2018-Jun-18 11:00S 34°03' W 104°40'0 0.0 18.9
2018-Jun-18 10:45S 34°03' W 104°40'2 0.4 18.9
2018-Jun-18 06:15S 34°05' W 104°40'0 0.0 18.7
2018-Jun-18 06:00S 34°05' W 104°40'0 0.0 18.7
2018-Jun-18 05:15S 34°05' W 104°40'0 0.0 18.7
2018-Jun-18 05:00S 34°05' W 104°40'0 1.0 18.7
2018-Jun-18 04:30S 34°05' W 104°40'0 0.0 18.7
2018-Jun-18 04:15S 34°05' W 104°40'1 1.2 18.7
2018-Jun-18 03:45S 34°05' W 104°40'1 2.4 18.7
2018-Jun-18 03:30S 34°05' W 104°40'0 2.0 18.7
2018-Jun-18 03:15S 34°05' W 104°40'1 0.8 18.7
2018-Jun-18 02:15S 34°05' W 104°40'0 0.0 18.6
2018-Jun-18 02:00S 34°05' W 104°40'0 0.0 18.5
2018-Jun-18 01:30S 34°05' W 104°40'0 0.0 18.5
2018-Jun-18 01:15S 34°05' W 104°40'0 2.0 18.5
2018-Jun-18 01:00S 34°05' W 104°41'0 1.0 18.5
2018-Jun-18 00:30S 34°05' W 104°40'0 0.0 18.4
2018-Jun-17 23:45S 34°05' W 104°40'0 0.0 18.4
2018-Jun-17 23:30S 34°05' W 104°40'0 2.0 18.4
2018-Jun-17 23:15S 34°05' W 104°41'1 0.9 18.3
2018-Jun-17 21:45S 34°07' W 104°40'0 0.0 18.3
2018-Jun-17 16:45S 34°07' W 104°40'1 1.6 18.2
2018-Jun-17 16:15S 34°07' W 104°40'0 0.0 18.2
2018-Jun-17 16:00S 34°07' W 104°40'0 1.0 18.2
2018-Jun-17 15:30S 34°07' W 104°40'0 0.0 18.2
2018-Jun-17 15:15S 34°07' W 104°40'0 0.0 18.2
2018-Jun-17 15:00S 34°07' W 104°40'1 0.8 18.2
2018-Jun-17 14:15S 34°08' W 104°40'0 0.0 18.2
2018-Jun-17 14:00S 34°08' W 104°40'0 0.0 18.2
2018-Jun-17 13:45S 34°08' W 104°40'0 0.0 18.2
2018-Jun-17 13:30S 34°08' W 104°40'1 0.6 18.2
2018-Jun-17 12:30S 34°08' W 104°40'0 2.0 18.2
2018-Jun-17 12:15S 34°08' W 104°41'0 0.0 18.3
2018-Jun-17 12:00S 34°08' W 104°41'0 0.0 18.2
2018-Jun-17 11:15S 34°08' W 104°41'0 0.0 18.3
2018-Jun-17 11:00S 34°08' W 104°41'2 1.0 18.2
2018-Jun-17 09:30S 34°10' W 104°42'0 0.0 18.2
2018-Jun-17 09:15S 34°10' W 104°42'1 0.2 18.3
2018-Jun-17 05:00S 34°09' W 104°41'0 0.0 18.3
2018-Jun-17 04:45S 34°09' W 104°41'1 1.0 18.3
2018-Jun-17 04:00S 34°10' W 104°42'0 2.0 18.3
2018-Jun-17 03:45S 34°10' W 104°43'0 0.0 18.3
2018-Jun-17 03:00S 34°10' W 104°43'0 0.0 18.3
2018-Jun-17 02:45S 34°10' W 104°43'1 1.2 18.3
2018-Jun-17 02:15S 34°09' W 104°43'0 2.0 18.3
2018-Jun-17 02:00S 34°09' W 104°42'2 6.2 18.3
2018-Jun-17 01:45S 34°10' W 104°43'2 2.1 18.4
2018-Jun-17 01:00S 34°09' W 104°42'0 0.0 18.4
2018-Jun-17 00:45S 34°09' W 104°42'1 1.2 18.4
2018-Jun-17 00:15S 34°10' W 104°42'0 0.0 18.4
2018-Jun-16 23:45S 34°10' W 104°42'0 2.0 18.4
2018-Jun-16 23:30S 34°10' W 104°41'0 0.0 18.4
2018-Jun-16 22:30S 34°10' W 104°41'2 3.6 18.4
2018-Jun-16 22:00S 34°11' W 104°41'0 0.0 18.4
2018-Jun-16 17:15S 34°11' W 104°41'0 0.0 18.4
2018-Jun-16 17:00S 34°11' W 104°41'0 0.0 18.4
2018-Jun-16 16:30S 34°11' W 104°41'0 0.0 18.4
2018-Jun-16 16:15S 34°11' W 104°41'1 0.4 18.4
2018-Jun-16 14:45S 34°12' W 104°41'0 0.0 18.4
2018-Jun-16 14:30S 34°12' W 104°41'0 0.0 18.4
2018-Jun-16 14:15S 34°12' W 104°41'1 2.4 18.4
2018-Jun-16 14:00S 34°13' W 104°41'0 0.0 18.4
2018-Jun-16 13:45S 34°13' W 104°41'0 0.7 18.4
2018-Jun-16 13:00S 34°13' W 104°42'1 2.4 18.4
2018-Jun-16 12:45S 34°13' W 104°42'0 0.0 18.4
2018-Jun-16 12:30S 34°13' W 104°42'0 0.0 18.4
2018-Jun-16 11:15S 34°13' W 104°42'0 0.3 18.5
2018-Jun-16 09:45S 34°13' W 104°43'0 0.0 18.5
2018-Jun-16 09:30S 34°13' W 104°43'1 0.2 18.5
2018-Jun-16 05:45S 34°13' W 104°43'0 0.0 18.5
2018-Jun-16 05:15S 34°13' W 104°43'0 0.0 18.5
2018-Jun-16 05:00S 34°13' W 104°43'0 0.7 18.5
2018-Jun-16 04:15S 34°13' W 104°42'0 0.0 18.5
2018-Jun-16 04:00S 34°13' W 104°42'0 0.0 18.5
2018-Jun-16 03:30S 34°13' W 104°42'1 1.2 18.5
2018-Jun-16 03:00S 34°13' W 104°42'0 1.0 18.5
2018-Jun-16 02:30S 34°13' W 104°41'0 0.0 18.5
2018-Jun-16 02:15S 34°13' W 104°41'0 0.0 18.5
2018-Jun-16 01:30S 34°13' W 104°41'0 0.0 18.5
2018-Jun-16 01:15S 34°13' W 104°41'1 1.2 18.5
2018-Jun-16 00:45S 34°14' W 104°41'0 0.7 18.5
2018-Jun-16 00:00S 34°14' W 104°41'1 2.4 18.5
2018-Jun-15 23:45S 34°14' W 104°41'0 0.0 18.5
2018-Jun-15 23:15S 34°14' W 104°41'0 0.0 18.5
2018-Jun-15 23:00S 34°14' W 104°41'0 0.0 18.5
2018-Jun-15 22:15S 34°14' W 104°41'2 7.5 18.5
2018-Jun-15 22:00S 34°16' W 104°41'0 0.0 18.5
2018-Jun-15 17:30S 34°16' W 104°41'0 0.0 18.5
2018-Jun-15 16:45S 34°16' W 104°41'1 1.5 18.5
2018-Jun-15 16:00S 34°16' W 104°43'0 0.0 18.6
2018-Jun-15 15:45S 34°16' W 104°43'0 0.0 18.6
2018-Jun-15 15:15S 34°16' W 104°43'0 0.0 18.6
2018-Jun-15 15:00S 34°16' W 104°43'0 2.0 18.6
2018-Jun-15 14:45S 34°16' W 104°43'0 0.0 18.6
2018-Jun-15 14:15S 34°16' W 104°43'0 0.0 18.6
2018-Jun-15 14:00S 34°16' W 104°43'1 1.2 18.6
2018-Jun-15 13:30S 34°16' W 104°43'0 0.0 18.6
2018-Jun-15 13:00S 34°16' W 104°43'0 0.0 18.6
2018-Jun-15 12:30S 34°16' W 104°43'0 0.0 18.6
2018-Jun-15 12:15S 34°16' W 104°43'0 0.0 18.6
2018-Jun-15 12:00S 34°16' W 104°43'1 3.1 18.6
2018-Jun-15 11:45S 34°16' W 104°44'0 0.0 18.6
2018-Jun-15 11:30S 34°16' W 104°44'0 0.0 18.6
2018-Jun-15 11:15S 34°16' W 104°44'0 0.0 18.6
2018-Jun-15 09:45S 34°16' W 104°44'1 0.3 18.6
2018-Jun-15 06:15S 34°15' W 104°45'0 0.0 18.6
2018-Jun-15 06:00S 34°15' W 104°45'0 0.0 18.6
2018-Jun-15 05:30S 34°15' W 104°45'0 0.0 18.6
2018-Jun-15 05:15S 34°15' W 104°45'0 0.7 18.6
2018-Jun-15 04:30S 34°15' W 104°44'1 4.6 18.6
2018-Jun-15 04:15S 34°14' W 104°46'0 0.0 18.6
2018-Jun-15 03:45S 34°14' W 104°46'0 0.0 18.6
2018-Jun-15 03:30S 34°14' W 104°46'0 0.0 18.6
2018-Jun-15 02:45S 34°14' W 104°46'0 0.0 18.6
2018-Jun-15 02:30S 34°14' W 104°46'1 3.0 18.6
2018-Jun-15 02:00S 34°14' W 104°47'0 0.0 18.6
2018-Jun-15 01:45S 34°14' W 104°47'1 2.0 18.6
2018-Jun-15 01:15S 34°14' W 104°46'0 0.5 18.7
2018-Jun-15 00:15S 34°14' W 104°46'1 2.4 19.0
2018-Jun-15 00:00S 34°14' W 104°46'0 0.0 19.0
2018-Jun-14 23:45S 34°14' W 104°46'1 4.0 19.1
2018-Jun-14 23:30S 34°14' W 104°47'0 0.0 19.1
2018-Jun-14 22:30S 34°14' W 104°47'2 8.2 19.1
2018-Jun-14 22:15S 34°12' W 104°48'0 0.0 19.1
2018-Jun-14 17:15S 34°12' W 104°48'0 0.0 19.3
2018-Jun-14 17:00S 34°12' W 104°48'0 0.0 19.3
2018-Jun-14 16:15S 34°12' W 104°48'1 2.4 19.3
2018-Jun-14 16:00S 34°11' W 104°48'0 2.0 19.3
2018-Jun-14 15:45S 34°11' W 104°47'0 0.0 19.3
2018-Jun-14 15:30S 34°11' W 104°47'0 0.0 19.3
2018-Jun-14 15:15S 34°11' W 104°47'0 0.5 19.3
2018-Jun-14 14:15S 34°11' W 104°48'0 0.0 19.2
2018-Jun-14 14:00S 34°11' W 104°48'1 1.2 19.2
2018-Jun-14 13:30S 34°11' W 104°48'0 0.0 19.2
2018-Jun-14 13:15S 34°11' W 104°48'0 0.7 19.2
2018-Jun-14 12:30S 34°11' W 104°47'0 0.0 19.2
2018-Jun-14 12:15S 34°11' W 104°47'1 1.2 19.2
2018-Jun-14 11:45S 34°10' W 104°47'0 0.0 19.2
2018-Jun-14 11:30S 34°10' W 104°47'0 0.3 19.2
2018-Jun-14 10:00S 34°10' W 104°48'0 0.0 19.2
2018-Jun-14 09:45S 34°10' W 104°48'1 0.2 19.2
2018-Jun-14 06:30S 34°10' W 104°49'1 1.2 19.2
2018-Jun-14 06:00S 34°10' W 104°49'0 0.0 19.2
2018-Jun-14 05:45S 34°10' W 104°49'1 0.8 19.2
2018-Jun-14 05:00S 34°10' W 104°49'0 2.0 19.1
2018-Jun-14 04:45S 34°10' W 104°49'0 0.0 19.1
2018-Jun-14 04:30S 34°10' W 104°49'0 2.0 19.1
2018-Jun-14 04:15S 34°10' W 104°50'0 0.0 19.1
2018-Jun-14 04:00S 34°10' W 104°50'1 5.2 19.1
2018-Jun-14 03:45S 34°08' W 104°49'0 0.0 19.1
2018-Jun-14 03:15S 34°08' W 104°49'1 3.1 19.1
2018-Jun-14 03:00S 34°09' W 104°50'1 3.1 19.1
2018-Jun-14 02:45S 34°08' W 104°50'0 0.0 19.1
2018-Jun-14 02:15S 34°08' W 104°50'1 1.2 19.1
2018-Jun-14 01:45S 34°09' W 104°50'1 0.6 19.1
2018-Jun-14 00:30S 34°08' W 104°51'1 3.1 19.0
2018-Jun-14 00:15S 34°08' W 104°52'0 0.0 19.0
2018-Jun-14 00:00S 34°08' W 104°52'0 0.0 19.0
2018-Jun-13 22:45S 34°08' W 104°52'2 9.8 18.9
2018-Jun-13 22:30S 34°05' W 104°52'0 0.0 18.9
2018-Jun-13 17:30S 34°05' W 104°52'0 0.0 18.9
2018-Jun-13 16:15S 34°05' W 104°52'1 2.4 18.9
2018-Jun-13 16:00S 34°06' W 104°52'0 0.0 18.9
2018-Jun-13 15:45S 34°06' W 104°52'1 1.0 18.9
2018-Jun-13 15:00S 34°05' W 104°52'0 2.0 18.9
2018-Jun-13 14:45S 34°05' W 104°52'0 2.0 18.9
2018-Jun-13 14:30S 34°05' W 104°52'   18.9
Track history (hours):
 
Tides and Currents Weather Stations Pressure Air Temp Water Temp Dewpoint Dewpoint Depression Visibility Wind Speed Wind Dir Waves Ship Positions

Drifting buoy 32817

Last reported at 2018-Jun-23 14:30 UTC. Time now 2018-Jun-23 15:32 UTC.
Position S 33°57' W 105°05'.

Water temperature 18.3 ° C

Date/timePositionNaut miles runAvg speedWind from/ knotsBaromVisibWave heightAir tempDewpointWater temp
2018-Jun-23 14:30S 33°57' W 105°05'1 2.4 18.3
2018-Jun-23 14:15S 33°56' W 105°05'0 0.0 18.3
2018-Jun-23 14:00S 33°56' W 105°05'0 0.5 18.3
2018-Jun-23 13:00S 33°56' W 105°04'1 2.4 18.3
2018-Jun-23 12:45S 33°57' W 105°04'0 0.0 18.3
2018-Jun-23 12:30S 33°57' W 105°04'1 0.8 18.3
2018-Jun-23 11:45S 33°56' W 105°04'0 0.0 18.3
2018-Jun-23 11:30S 33°56' W 105°04'0 0.0 18.3
2018-Jun-23 10:00S 33°56' W 105°04'0 0.0 18.4
2018-Jun-23 09:45S 33°56' W 105°04'1 0.2 18.4
2018-Jun-23 06:00S 33°56' W 105°04'0 0.7 18.4
2018-Jun-23 05:15S 33°56' W 105°03'0 0.0 18.4
2018-Jun-23 05:00S 33°56' W 105°03'0 0.0 18.4
2018-Jun-23 04:30S 33°56' W 105°03'0 0.0 18.4
2018-Jun-23 04:15S 33°56' W 105°03'0 0.7 18.4
2018-Jun-23 03:30S 33°56' W 105°02'1 2.4 18.4
2018-Jun-23 03:15S 33°56' W 105°02'0 0.0 18.4
2018-Jun-23 03:00S 33°56' W 105°02'0 0.0 18.4
2018-Jun-23 02:45S 33°56' W 105°02'0 1.0 18.4
2018-Jun-23 02:15S 33°56' W 105°02'0 0.0 18.5
2018-Jun-23 02:00S 33°56' W 105°02'0 0.0 18.4
2018-Jun-23 01:45S 33°56' W 105°02'0 0.0 18.5
2018-Jun-23 00:30S 33°56' W 105°02'0 0.0 18.5
2018-Jun-23 00:15S 33°56' W 105°02'0 2.0 18.5
2018-Jun-23 00:00S 33°56' W 105°01'0 0.3 18.5
2018-Jun-22 22:30S 33°56' W 105°01'0 0.0 18.5
2018-Jun-22 16:45S 33°56' W 105°01'0 0.7 18.6
2018-Jun-22 16:00S 33°56' W 105°01'0 0.0 18.6
2018-Jun-22 15:00S 33°56' W 105°01'0 0.0 18.6
2018-Jun-22 14:45S 33°56' W 105°01'1 4.0 18.6
2018-Jun-22 14:30S 33°56' W 105°00'0 0.0 18.6
2018-Jun-22 14:15S 33°56' W 105°00'0 0.0 18.6
2018-Jun-22 13:30S 33°56' W 105°00'1 3.1 18.6
2018-Jun-22 13:15S 33°56' W 105°01'1 1.6 18.6
2018-Jun-22 12:45S 33°56' W 105°00'1 1.0 18.6
2018-Jun-22 12:00S 33°56' W 105°01'0 0.0 18.5
2018-Jun-22 11:30S 33°56' W 105°01'0 0.0 18.4
2018-Jun-22 10:15S 33°56' W 105°01'0 0.0 18.3
2018-Jun-22 10:00S 33°56' W 105°01'1 0.3 18.3
2018-Jun-22 06:15S 33°56' W 104°59'0 0.0 18.0
2018-Jun-22 05:30S 33°56' W 104°59'0 0.0 18.0
2018-Jun-22 05:15S 33°56' W 104°59'1 1.6 18.0
2018-Jun-22 04:45S 33°55' W 104°59'0 0.0 18.0
2018-Jun-22 04:30S 33°55' W 104°59'0 0.0 18.0
2018-Jun-22 03:45S 33°55' W 104°59'0 0.7 18.0
2018-Jun-22 03:00S 33°55' W 104°59'0 0.0 18.0
2018-Jun-22 02:45S 33°55' W 104°59'0 0.0 18.0
2018-Jun-22 02:15S 33°55' W 104°59'0 0.0 17.9
2018-Jun-22 02:00S 33°55' W 104°59'1 1.2 18.0
2018-Jun-22 01:00S 33°55' W 104°58'0 0.0 17.9
2018-Jun-22 00:30S 33°55' W 104°58'0 0.0 17.9
2018-Jun-22 00:15S 33°55' W 104°58'0 0.7 18.0
2018-Jun-21 23:30S 33°55' W 104°58'0 0.0 18.0
2018-Jun-21 23:15S 33°55' W 104°58'0 0.0 18.0
2018-Jun-21 22:45S 33°55' W 104°58'0 2.0 18.0
2018-Jun-21 22:30S 33°55' W 104°57'0 0.0 18.0
2018-Jun-21 17:00S 33°55' W 104°57'1 2.0 18.0
2018-Jun-21 16:30S 33°55' W 104°56'0 0.0 18.0
2018-Jun-21 16:15S 33°55' W 104°56'0 0.0 18.0
2018-Jun-21 15:30S 33°55' W 104°56'0 0.0 18.0
2018-Jun-21 15:15S 33°55' W 104°56'0 1.0 18.0
2018-Jun-21 14:45S 33°55' W 104°56'0 0.0 18.0
2018-Jun-21 14:30S 33°55' W 104°56'1 1.6 18.0
2018-Jun-21 14:00S 33°55' W 104°56'0 0.0 18.0
2018-Jun-21 13:45S 33°55' W 104°56'0 0.0 18.0
2018-Jun-21 13:00S 33°55' W 104°56'0 0.0 18.0
2018-Jun-21 12:45S 33°55' W 104°56'0 1.0 18.0
2018-Jun-21 12:15S 33°55' W 104°55'1 2.4 18.0
2018-Jun-21 12:00S 33°55' W 104°55'0 0.0 18.0
2018-Jun-21 10:30S 33°55' W 104°55'0 0.0 18.1
2018-Jun-21 10:15S 33°55' W 104°55'1 0.6 18.1
2018-Jun-21 08:30S 33°55' W 104°54'0 0.2 18.1
2018-Jun-21 05:45S 33°55' W 104°53'0 0.0 18.2
2018-Jun-21 05:15S 33°55' W 104°53'1 3.1 18.2
2018-Jun-21 05:00S 33°54' W 104°53'0 0.0 18.2
2018-Jun-21 04:45S 33°54' W 104°53'1 1.6 18.2
2018-Jun-21 04:15S 33°55' W 104°53'0 0.0 18.2
2018-Jun-21 04:00S 33°55' W 104°53'1 1.6 18.2
2018-Jun-21 03:30S 33°54' W 104°53'0 2.0 18.2
2018-Jun-21 03:15S 33°54' W 104°52'0 0.0 18.2
2018-Jun-21 03:00S 33°54' W 104°52'0 0.0 18.2
2018-Jun-21 02:45S 33°54' W 104°52'0 0.0 18.2
2018-Jun-21 02:30S 33°54' W 104°52'0 0.5 18.2
2018-Jun-21 01:30S 33°54' W 104°52'1 1.6 18.2
2018-Jun-21 01:00S 33°55' W 104°52'0 0.0 18.2
2018-Jun-21 00:45S 33°55' W 104°52'0 0.0 18.2
2018-Jun-21 00:30S 33°55' W 104°52'0 0.0 18.2
2018-Jun-21 00:00S 33°55' W 104°52'0 0.0 18.2
2018-Jun-20 23:45S 33°55' W 104°52'0 0.0 18.2
2018-Jun-20 23:00S 33°55' W 104°52'1 4.7 18.2
2018-Jun-20 22:45S 33°55' W 104°51'0 0.0 18.2
2018-Jun-20 17:30S 33°55' W 104°51'0 0.0 18.5
2018-Jun-20 17:15S 33°55' W 104°51'0 0.0 18.5
2018-Jun-20 16:45S 33°55' W 104°51'0 0.0 18.5
2018-Jun-20 16:30S 33°55' W 104°51'1 0.8 18.5
2018-Jun-20 15:45S 33°55' W 104°51'1 1.6 18.5
2018-Jun-20 15:15S 33°55' W 104°50'0 0.0 18.6
2018-Jun-20 15:00S 33°55' W 104°50'0 0.0 18.6
2018-Jun-20 14:45S 33°55' W 104°50'1 0.8 18.6
2018-Jun-20 14:00S 33°56' W 104°50'1 1.0 18.6
2018-Jun-20 13:15S 33°55' W 104°50'0 0.0 18.7
2018-Jun-20 13:00S 33°55' W 104°50'0 0.0 18.7
2018-Jun-20 12:45S 33°55' W 104°50'0 0.0 18.7
2018-Jun-20 12:30S 33°55' W 104°50'1 4.7 18.7
2018-Jun-20 12:15S 33°56' W 104°49'0 0.0 18.7
2018-Jun-20 12:00S 33°56' W 104°49'0 0.0 18.7
2018-Jun-20 10:30S 33°56' W 104°49'0 0.0 18.7
2018-Jun-20 10:15S 33°56' W 104°49'0 0.0 18.7
2018-Jun-20 08:45S 33°56' W 104°49'0 0.2 18.7
2018-Jun-20 06:00S 33°56' W 104°48'0 1.0 18.7
2018-Jun-20 05:30S 33°56' W 104°47'0 0.0 18.7
2018-Jun-20 05:15S 33°56' W 104°47'1 0.8 18.7
2018-Jun-20 04:30S 33°56' W 104°47'0 0.0 18.7
2018-Jun-20 04:15S 33°56' W 104°47'0 0.0 18.7
2018-Jun-20 03:45S 33°56' W 104°47'0 2.0 18.8
2018-Jun-20 03:30S 33°56' W 104°47'1 4.6 18.7
2018-Jun-20 03:15S 33°57' W 104°48'0 0.0 18.8
2018-Jun-20 03:00S 33°57' W 104°48'0 0.0 18.8
2018-Jun-20 02:00S 33°57' W 104°48'1 3.1 18.8
2018-Jun-20 01:45S 33°58' W 104°47'0 0.0 18.8
2018-Jun-20 01:30S 33°58' W 104°47'0 0.0 18.8
2018-Jun-20 01:15S 33°58' W 104°47'0 0.0 18.8
2018-Jun-20 00:45S 33°58' W 104°47'0 0.0 18.8
2018-Jun-20 00:30S 33°58' W 104°47'0 0.0 18.8
2018-Jun-20 00:15S 33°58' W 104°47'1 0.6 18.8
2018-Jun-19 23:15S 33°58' W 104°47'0 2.0 18.8
2018-Jun-19 23:00S 33°58' W 104°47'0 0.0 18.8
2018-Jun-19 22:45S 33°58' W 104°47'0 0.0 18.8
2018-Jun-19 17:15S 33°58' W 104°47'0 0.0 18.9
2018-Jun-19 17:00S 33°58' W 104°47'0 0.7 18.9
2018-Jun-19 16:15S 33°58' W 104°46'0 0.0 18.9
2018-Jun-19 16:00S 33°58' W 104°46'0 0.0 18.9
2018-Jun-19 15:30S 33°58' W 104°46'0 0.0 18.9
2018-Jun-19 15:15S 33°58' W 104°46'0 0.0 18.9
2018-Jun-19 15:00S 33°58' W 104°46'0 2.0 18.9
2018-Jun-19 14:45S 33°58' W 104°46'0 0.0 18.9
2018-Jun-19 13:15S 33°58' W 104°46'0 2.0 18.9
2018-Jun-19 13:00S 33°58' W 104°45'2 2.1 18.9
2018-Jun-19 12:15S 33°59' W 104°43'0 0.0 18.9
2018-Jun-19 11:30S 33°59' W 104°43'0 0.0 18.9
2018-Jun-19 10:45S 33°59' W 104°43'0 0.0 18.9
2018-Jun-19 10:30S 33°59' W 104°43'2 1.2 18.9
2018-Jun-19 09:00S 34°01' W 104°44'0 0.0 18.9
2018-Jun-19 06:30S 34°01' W 104°44'0 0.0 18.9
2018-Jun-19 05:45S 34°01' W 104°44'0 0.0 18.9
2018-Jun-19 04:45S 34°01' W 104°44'0 1.0 18.9
2018-Jun-19 04:15S 34°01' W 104°43'0 0.0 18.9
2018-Jun-19 04:00S 34°01' W 104°43'0 0.0 18.9
2018-Jun-19 03:45S 34°01' W 104°43'1 4.6 18.9
2018-Jun-19 03:30S 34°01' W 104°44'1 4.0 18.9
2018-Jun-19 03:15S 34°01' W 104°43'1 2.4 18.9
2018-Jun-19 03:00S 34°01' W 104°43'1 1.2 18.9
2018-Jun-19 02:00S 34°01' W 104°44'0 0.0 18.9
2018-Jun-19 01:45S 34°01' W 104°44'1 1.3 18.9
2018-Jun-19 01:00S 34°01' W 104°43'0 0.0 18.9
2018-Jun-19 00:45S 34°01' W 104°43'0 0.4 18.9
2018-Jun-18 23:30S 34°01' W 104°43'0 0.0 18.9
2018-Jun-18 23:15S 34°01' W 104°43'0 0.0 18.9
2018-Jun-18 21:30S 34°01' W 104°43'0 0.0 18.9
2018-Jun-18 17:30S 34°01' W 104°43'0 2.0 18.9
2018-Jun-18 17:15S 34°01' W 104°42'0 0.0 19.0
2018-Jun-18 15:45S 34°01' W 104°42'1 2.4 19.0
2018-Jun-18 15:30S 34°02' W 104°42'0 0.0 18.9
2018-Jun-18 15:15S 34°02' W 104°42'0 0.0 18.9
2018-Jun-18 15:00S 34°02' W 104°42'1 4.0 18.9
2018-Jun-18 14:45S 34°02' W 104°41'0 0.5 19.0
2018-Jun-18 13:45S 34°02' W 104°41'1 3.1 19.0
2018-Jun-18 13:30S 34°02' W 104°41'0 0.0 18.9
2018-Jun-18 13:15S 34°02' W 104°41'1 0.9 19.0
2018-Jun-18 12:00S 34°03' W 104°40'0 2.0 18.9
2018-Jun-18 11:45S 34°03' W 104°40'0 0.7 18.9
2018-Jun-18 11:00S 34°03' W 104°40'0 0.0 18.9
2018-Jun-18 10:45S 34°03' W 104°40'2 0.4 18.9
2018-Jun-18 06:15S 34°05' W 104°40'0 0.0 18.7
2018-Jun-18 06:00S 34°05' W 104°40'0 0.0 18.7
2018-Jun-18 05:15S 34°05' W 104°40'0 0.0 18.7
2018-Jun-18 05:00S 34°05' W 104°40'0 1.0 18.7
2018-Jun-18 04:30S 34°05' W 104°40'0 0.0 18.7
2018-Jun-18 04:15S 34°05' W 104°40'1 1.2 18.7
2018-Jun-18 03:45S 34°05' W 104°40'1 2.4 18.7
2018-Jun-18 03:30S 34°05' W 104°40'0 2.0 18.7
2018-Jun-18 03:15S 34°05' W 104°40'1 0.8 18.7
2018-Jun-18 02:15S 34°05' W 104°40'0 0.0 18.6
2018-Jun-18 02:00S 34°05' W 104°40'0 0.0 18.5
2018-Jun-18 01:30S 34°05' W 104°40'0 0.0 18.5
2018-Jun-18 01:15S 34°05' W 104°40'0 2.0 18.5
2018-Jun-18 01:00S 34°05' W 104°41'0 1.0 18.5
2018-Jun-18 00:30S 34°05' W 104°40'0 0.0 18.4
2018-Jun-17 23:45S 34°05' W 104°40'0 0.0 18.4
2018-Jun-17 23:30S 34°05' W 104°40'0 2.0 18.4
2018-Jun-17 23:15S 34°05' W 104°41'1 0.9 18.3
2018-Jun-17 21:45S 34°07' W 104°40'0 0.0 18.3
2018-Jun-17 16:45S 34°07' W 104°40'1 1.6 18.2
2018-Jun-17 16:15S 34°07' W 104°40'0 0.0 18.2
2018-Jun-17 16:00S 34°07' W 104°40'0 1.0 18.2
2018-Jun-17 15:30S 34°07' W 104°40'0 0.0 18.2
2018-Jun-17 15:15S 34°07' W 104°40'0 0.0 18.2
2018-Jun-17 15:00S 34°07' W 104°40'1 0.8 18.2
2018-Jun-17 14:15S 34°08' W 104°40'0 0.0 18.2
2018-Jun-17 14:00S 34°08' W 104°40'0 0.0 18.2
2018-Jun-17 13:45S 34°08' W 104°40'0 0.0 18.2
2018-Jun-17 13:30S 34°08' W 104°40'1 0.6 18.2
2018-Jun-17 12:30S 34°08' W 104°40'0 2.0 18.2
2018-Jun-17 12:15S 34°08' W 104°41'0 0.0 18.3
2018-Jun-17 12:00S 34°08' W 104°41'0 0.0 18.2
2018-Jun-17 11:15S 34°08' W 104°41'0 0.0 18.3
2018-Jun-17 11:00S 34°08' W 104°41'2 1.0 18.2
2018-Jun-17 09:30S 34°10' W 104°42'0 0.0 18.2
2018-Jun-17 09:15S 34°10' W 104°42'1 0.2 18.3
2018-Jun-17 05:00S 34°09' W 104°41'0 0.0 18.3
2018-Jun-17 04:45S 34°09' W 104°41'1 1.0 18.3
2018-Jun-17 04:00S 34°10' W 104°42'0 2.0 18.3
2018-Jun-17 03:45S 34°10' W 104°43'0 0.0 18.3
2018-Jun-17 03:00S 34°10' W 104°43'0 0.0 18.3
2018-Jun-17 02:45S 34°10' W 104°43'1 1.2 18.3
2018-Jun-17 02:15S 34°09' W 104°43'0 2.0 18.3
2018-Jun-17 02:00S 34°09' W 104°42'2 6.2 18.3
2018-Jun-17 01:45S 34°10' W 104°43'2 2.1 18.4
2018-Jun-17 01:00S 34°09' W 104°42'0 0.0 18.4
2018-Jun-17 00:45S 34°09' W 104°42'1 1.2 18.4
2018-Jun-17 00:15S 34°10' W 104°42'0 0.0 18.4
2018-Jun-16 23:45S 34°10' W 104°42'0 2.0 18.4
2018-Jun-16 23:30S 34°10' W 104°41'0 0.0 18.4
2018-Jun-16 22:30S 34°10' W 104°41'2 3.6 18.4
2018-Jun-16 22:00S 34°11' W 104°41'0 0.0 18.4
2018-Jun-16 17:15S 34°11' W 104°41'0 0.0 18.4
2018-Jun-16 17:00S 34°11' W 104°41'0 0.0 18.4
2018-Jun-16 16:30S 34°11' W 104°41'0 0.0 18.4
2018-Jun-16 16:15S 34°11' W 104°41'1 0.4 18.4
2018-Jun-16 14:45S 34°12' W 104°41'0 0.0 18.4
2018-Jun-16 14:30S 34°12' W 104°41'0 0.0 18.4
2018-Jun-16 14:15S 34°12' W 104°41'1 2.4 18.4
2018-Jun-16 14:00S 34°13' W 104°41'0 0.0 18.4
2018-Jun-16 13:45S 34°13' W 104°41'0 0.7 18.4
2018-Jun-16 13:00S 34°13' W 104°42'1 2.4 18.4
2018-Jun-16 12:45S 34°13' W 104°42'0 0.0 18.4
2018-Jun-16 12:30S 34°13' W 104°42'0 0.0 18.4
2018-Jun-16 11:15S 34°13' W 104°42'0 0.3 18.5
2018-Jun-16 09:45S 34°13' W 104°43'0 0.0 18.5
2018-Jun-16 09:30S 34°13' W 104°43'1 0.2 18.5
2018-Jun-16 05:45S 34°13' W 104°43'0 0.0 18.5
2018-Jun-16 05:15S 34°13' W 104°43'0 0.0 18.5
2018-Jun-16 05:00S 34°13' W 104°43'0 0.7 18.5
2018-Jun-16 04:15S 34°13' W 104°42'0 0.0 18.5
2018-Jun-16 04:00S 34°13' W 104°42'0 0.0 18.5
2018-Jun-16 03:30S 34°13' W 104°42'1 1.2 18.5
2018-Jun-16 03:00S 34°13' W 104°42'0 1.0 18.5
2018-Jun-16 02:30S 34°13' W 104°41'0 0.0 18.5
2018-Jun-16 02:15S 34°13' W 104°41'0 0.0 18.5
2018-Jun-16 01:30S 34°13' W 104°41'0 0.0 18.5
2018-Jun-16 01:15S 34°13' W 104°41'1 1.2 18.5
2018-Jun-16 00:45S 34°14' W 104°41'0 0.7 18.5
2018-Jun-16 00:00S 34°14' W 104°41'1 2.4 18.5
2018-Jun-15 23:45S 34°14' W 104°41'0 0.0 18.5
2018-Jun-15 23:15S 34°14' W 104°41'0 0.0 18.5
2018-Jun-15 23:00S 34°14' W 104°41'0 0.0 18.5
2018-Jun-15 22:15S 34°14' W 104°41'2 7.5 18.5
2018-Jun-15 22:00S 34°16' W 104°41'0 0.0 18.5
2018-Jun-15 17:30S 34°16' W 104°41'0 0.0 18.5
2018-Jun-15 16:45S 34°16' W 104°41'1 1.5 18.5
2018-Jun-15 16:00S 34°16' W 104°43'0 0.0 18.6
2018-Jun-15 15:45S 34°16' W 104°43'0 0.0 18.6
2018-Jun-15 15:15S 34°16' W 104°43'0 0.0 18.6
2018-Jun-15 15:00S 34°16' W 104°43'0 2.0 18.6
2018-Jun-15 14:45S 34°16' W 104°43'0 0.0 18.6
2018-Jun-15 14:15S 34°16' W 104°43'0 0.0 18.6
2018-Jun-15 14:00S 34°16' W 104°43'1 1.2 18.6
2018-Jun-15 13:30S 34°16' W 104°43'0 0.0 18.6
2018-Jun-15 13:00S 34°16' W 104°43'0 0.0 18.6
2018-Jun-15 12:30S 34°16' W 104°43'0 0.0 18.6
2018-Jun-15 12:15S 34°16' W 104°43'0 0.0 18.6
2018-Jun-15 12:00S 34°16' W 104°43'1 3.1 18.6
2018-Jun-15 11:45S 34°16' W 104°44'0 0.0 18.6
2018-Jun-15 11:30S 34°16' W 104°44'0 0.0 18.6
2018-Jun-15 11:15S 34°16' W 104°44'0 0.0 18.6
2018-Jun-15 09:45S 34°16' W 104°44'1 0.3 18.6
2018-Jun-15 06:15S 34°15' W 104°45'0 0.0 18.6
2018-Jun-15 06:00S 34°15' W 104°45'0 0.0 18.6
2018-Jun-15 05:30S 34°15' W 104°45'0 0.0 18.6
2018-Jun-15 05:15S 34°15' W 104°45'0 0.7 18.6
2018-Jun-15 04:30S 34°15' W 104°44'1 4.6 18.6
2018-Jun-15 04:15S 34°14' W 104°46'0 0.0 18.6
2018-Jun-15 03:45S 34°14' W 104°46'0 0.0 18.6
2018-Jun-15 03:30S 34°14' W 104°46'0 0.0 18.6
2018-Jun-15 02:45S 34°14' W 104°46'0 0.0 18.6
2018-Jun-15 02:30S 34°14' W 104°46'1 3.0 18.6
2018-Jun-15 02:00S 34°14' W 104°47'0 0.0 18.6
2018-Jun-15 01:45S 34°14' W 104°47'1 2.0 18.6
2018-Jun-15 01:15S 34°14' W 104°46'0 0.5 18.7
2018-Jun-15 00:15S 34°14' W 104°46'1 2.4 19.0
2018-Jun-15 00:00S 34°14' W 104°46'0 0.0 19.0
2018-Jun-14 23:45S 34°14' W 104°46'1 4.0 19.1
2018-Jun-14 23:30S 34°14' W 104°47'0 0.0 19.1
2018-Jun-14 22:30S 34°14' W 104°47'2 8.2 19.1
2018-Jun-14 22:15S 34°12' W 104°48'0 0.0 19.1
2018-Jun-14 17:15S 34°12' W 104°48'0 0.0 19.3
2018-Jun-14 17:00S 34°12' W 104°48'0 0.0 19.3
2018-Jun-14 16:15S 34°12' W 104°48'1 2.4 19.3
2018-Jun-14 16:00S 34°11' W 104°48'0 2.0 19.3
2018-Jun-14 15:45S 34°11' W 104°47'0 0.0 19.3
2018-Jun-14 15:30S 34°11' W 104°47'0 0.0 19.3
2018-Jun-14 15:15S 34°11' W 104°47'0 0.5 19.3
2018-Jun-14 14:15S 34°11' W 104°48'0 0.0 19.2
2018-Jun-14 14:00S 34°11' W 104°48'1 1.2 19.2
2018-Jun-14 13:30S 34°11' W 104°48'0 0.0 19.2
2018-Jun-14 13:15S 34°11' W 104°48'0 0.7 19.2
2018-Jun-14 12:30S 34°11' W 104°47'0 0.0 19.2
2018-Jun-14 12:15S 34°11' W 104°47'1 1.2 19.2
2018-Jun-14 11:45S 34°10' W 104°47'0 0.0 19.2
2018-Jun-14 11:30S 34°10' W 104°47'0 0.3 19.2
2018-Jun-14 10:00S 34°10' W 104°48'0 0.0 19.2
2018-Jun-14 09:45S 34°10' W 104°48'1 0.2 19.2
2018-Jun-14 06:30S 34°10' W 104°49'1 1.2 19.2
2018-Jun-14 06:00S 34°10' W 104°49'0 0.0 19.2
2018-Jun-14 05:45S 34°10' W 104°49'1 0.8 19.2
2018-Jun-14 05:00S 34°10' W 104°49'0 2.0 19.1
2018-Jun-14 04:45S 34°10' W 104°49'0 0.0 19.1
2018-Jun-14 04:30S 34°10' W 104°49'0 2.0 19.1
2018-Jun-14 04:15S 34°10' W 104°50'0 0.0 19.1
2018-Jun-14 04:00S 34°10' W 104°50'1 5.2 19.1
2018-Jun-14 03:45S 34°08' W 104°49'0 0.0 19.1
2018-Jun-14 03:15S 34°08' W 104°49'1 3.1 19.1
2018-Jun-14 03:00S 34°09' W 104°50'1 3.1 19.1
2018-Jun-14 02:45S 34°08' W 104°50'0 0.0 19.1
2018-Jun-14 02:15S 34°08' W 104°50'1 1.2 19.1
2018-Jun-14 01:45S 34°09' W 104°50'1 0.6 19.1
2018-Jun-14 00:30S 34°08' W 104°51'1 3.1 19.0
2018-Jun-14 00:15S 34°08' W 104°52'0 0.0 19.0
2018-Jun-14 00:00S 34°08' W 104°52'0 0.0 19.0
2018-Jun-13 22:45S 34°08' W 104°52'2 9.8 18.9
2018-Jun-13 22:30S 34°05' W 104°52'0 0.0 18.9
2018-Jun-13 17:30S 34°05' W 104°52'0 0.0 18.9
2018-Jun-13 16:15S 34°05' W 104°52'1 2.4 18.9
2018-Jun-13 16:00S 34°06' W 104°52'0 0.0 18.9
2018-Jun-13 15:45S 34°06' W 104°52'1 1.0 18.9
2018-Jun-13 15:00S 34°05' W 104°52'0 2.0 18.9
2018-Jun-13 14:45S 34°05' W 104°52'0 2.0 18.9
2018-Jun-13 14:30S 34°05' W 104°52'   18.9

Dump ship's entire track history